sensor_id;sensor_type;location;lat;lon;timestamp;temperature;humidity
11264;DHT22;5689;48.798;9.070;2023-10-31T00:01:47;11.40;99.90
11264;DHT22;5689;48.798;9.070;2023-10-31T00:04:15;11.40;99.90
11264;DHT22;5689;48.798;9.070;2023-10-31T00:06:45;11.40;99.90
11264;DHT22;5689;48.798;9.070;2023-10-31T00:09:13;11.40;99.90
11264;DHT22;5689;48.798;9.070;2023-10-31T00:11:41;11.30;99.90
11264;DHT22;5689;48.798;9.070;2023-10-31T00:14:11;11.30;99.90
11264;DHT22;5689;48.798;9.070;2023-10-31T00:16:39;11.40;99.90
11264;DHT22;5689;48.798;9.070;2023-10-31T00:19:07;11.40;99.90
11264;DHT22;5689;48.798;9.070;2023-10-31T00:21:35;11.40;99.90
11264;DHT22;5689;48.798;9.070;2023-10-31T00:24:05;11.50;99.90
11264;DHT22;5689;48.798;9.070;2023-10-31T00:26:34;11.50;99.90
11264;DHT22;5689;48.798;9.070;2023-10-31T00:29:02;11.50;99.90
11264;DHT22;5689;48.798;9.070;2023-10-31T00:31:30;11.40;99.90
11264;DHT22;5689;48.798;9.070;2023-10-31T00:34:01;11.40;99.90
11264;DHT22;5689;48.798;9.070;2023-10-31T00:36:29;11.50;99.90
11264;DHT22;5689;48.798;9.070;2023-10-31T00:38:57;11.40;99.90
11264;DHT22;5689;48.798;9.070;2023-10-31T00:41:27;11.40;99.90
11264;DHT22;5689;48.798;9.070;2023-10-31T00:43:55;11.30;99.90
11264;DHT22;5689;48.798;9.070;2023-10-31T00:46:23;11.30;99.90
11264;DHT22;5689;48.798;9.070;2023-10-31T00:48:51;11.20;99.90
11264;DHT22;5689;48.798;9.070;2023-10-31T00:51:19;11.10;99.90
11264;DHT22;5689;48.798;9.070;2023-10-31T00:53:47;11.10;99.90
11264;DHT22;5689;48.798;9.070;2023-10-31T00:56:15;11.10;99.90
11264;DHT22;5689;48.798;9.070;2023-10-31T00:58:44;11.00;99.90
11264;DHT22;5689;48.798;9.070;2023-10-31T01:01:13;10.90;99.90
11264;DHT22;5689;48.798;9.070;2023-10-31T01:03:42;10.80;99.90
11264;DHT22;5689;48.798;9.070;2023-10-31T01:06:10;10.80;99.90
11264;DHT22;5689;48.798;9.070;2023-10-31T01:08:38;10.70;99.90
11264;DHT22;5689;48.798;9.070;2023-10-31T01:11:06;10.60;99.90
11264;DHT22;5689;48.798;9.070;2023-10-31T01:13:34;10.60;99.90
11264;DHT22;5689;48.798;9.070;2023-10-31T01:16:04;10.50;99.90
11264;DHT22;5689;48.798;9.070;2023-10-31T01:18:32;10.50;99.90
11264;DHT22;5689;48.798;9.070;2023-10-31T01:21:01;10.40;99.90
11264;DHT22;5689;48.798;9.070;2023-10-31T01:23:29;10.20;99.90
11264;DHT22;5689;48.798;9.070;2023-10-31T01:25:57;10.20;99.90
11264;DHT22;5689;48.798;9.070;2023-10-31T01:28:25;10.10;99.90
11264;DHT22;5689;48.798;9.070;2023-10-31T01:30:53;10.10;99.90
11264;DHT22;5689;48.798;9.070;2023-10-31T01:33:22;10.10;99.90
11264;DHT22;5689;48.798;9.070;2023-10-31T01:35:51;10.00;99.90
11264;DHT22;5689;48.798;9.070;2023-10-31T01:38:19;10.10;99.90
11264;DHT22;5689;48.798;9.070;2023-10-31T01:40:49;10.10;99.90
11264;DHT22;5689;48.798;9.070;2023-10-31T01:43:29;10.10;99.90
11264;DHT22;5689;48.798;9.070;2023-10-31T01:45:58;10.10;99.90
11264;DHT22;5689;48.798;9.070;2023-10-31T01:48:29;10.10;99.90
11264;DHT22;5689;48.798;9.070;2023-10-31T01:50:59;10.10;99.90
11264;DHT22;5689;48.798;9.070;2023-10-31T01:53:29;10.10;99.90
11264;DHT22;5689;48.798;9.070;2023-10-31T01:55:59;10.10;99.90
11264;DHT22;5689;48.798;9.070;2023-10-31T01:58:30;10.20;99.90
11264;DHT22;5689;48.798;9.070;2023-10-31T02:00:59;10.10;99.90
11264;DHT22;5689;48.798;9.070;2023-10-31T02:03:30;10.20;99.90
11264;DHT22;5689;48.798;9.070;2023-10-31T02:06:00;10.20;99.90
11264;DHT22;5689;48.798;9.070;2023-10-31T02:08:28;10.30;99.90
11264;DHT22;5689;48.798;9.070;2023-10-31T02:10:56;10.30;99.90
11264;DHT22;5689;48.798;9.070;2023-10-31T02:13:24;10.30;99.90
11264;DHT22;5689;48.798;9.070;2023-10-31T02:15:53;10.30;99.90
11264;DHT22;5689;48.798;9.070;2023-10-31T02:18:21;10.40;99.90
11264;DHT22;5689;48.798;9.070;2023-10-31T02:20:50;10.40;99.90
11264;DHT22;5689;48.798;9.070;2023-10-31T02:23:20;10.40;99.90
11264;DHT22;5689;48.798;9.070;2023-10-31T02:25:48;10.40;99.90
11264;DHT22;5689;48.798;9.070;2023-10-31T02:28:17;10.40;99.90
11264;DHT22;5689;48.798;9.070;2023-10-31T02:30:45;10.40;99.90
11264;DHT22;5689;48.798;9.070;2023-10-31T02:33:13;10.50;99.90
11264;DHT22;5689;48.798;9.070;2023-10-31T02:35:41;10.50;99.90
11264;DHT22;5689;48.798;9.070;2023-10-31T02:38:09;10.50;99.90
11264;DHT22;5689;48.798;9.070;2023-10-31T02:40:39;10.50;99.90
11264;DHT22;5689;48.798;9.070;2023-10-31T02:43:07;10.50;99.90
11264;DHT22;5689;48.798;9.070;2023-10-31T02:45:35;10.50;99.90
11264;DHT22;5689;48.798;9.070;2023-10-31T02:48:04;10.50;99.90
11264;DHT22;5689;48.798;9.070;2023-10-31T02:50:32;10.60;99.90
11264;DHT22;5689;48.798;9.070;2023-10-31T02:53:00;10.60;99.90
11264;DHT22;5689;48.798;9.070;2023-10-31T02:55:28;10.60;99.90
11264;DHT22;5689;48.798;9.070;2023-10-31T02:57:58;10.60;99.90
11264;DHT22;5689;48.798;9.070;2023-10-31T03:00:26;10.60;99.90
11264;DHT22;5689;48.798;9.070;2023-10-31T03:02:54;10.50;99.90
11264;DHT22;5689;48.798;9.070;2023-10-31T03:05:22;10.50;99.90
11264;DHT22;5689;48.798;9.070;2023-10-31T03:07:50;10.50;99.90
11264;DHT22;5689;48.798;9.070;2023-10-31T03:10:19;10.40;99.90
11264;DHT22;5689;48.798;9.070;2023-10-31T03:12:48;10.30;99.90
11264;DHT22;5689;48.798;9.070;2023-10-31T03:15:17;10.40;99.90
11264;DHT22;5689;48.798;9.070;2023-10-31T03:17:45;10.40;99.90
11264;DHT22;5689;48.798;9.070;2023-10-31T03:20:13;10.50;99.90
11264;DHT22;5689;48.798;9.070;2023-10-31T03:22:41;10.40;99.90
11264;DHT22;5689;48.798;9.070;2023-10-31T03:25:10;10.50;99.90
11264;DHT22;5689;48.798;9.070;2023-10-31T03:27:38;10.40;99.90
11264;DHT22;5689;48.798;9.070;2023-10-31T03:30:07;10.30;99.90
11264;DHT22;5689;48.798;9.070;2023-10-31T03:32:37;10.20;99.90
11264;DHT22;5689;48.798;9.070;2023-10-31T03:35:06;10.20;99.90
11264;DHT22;5689;48.798;9.070;2023-10-31T03:37:34;10.30;99.90
11264;DHT22;5689;48.798;9.070;2023-10-31T03:40:03;10.40;99.90
11264;DHT22;5689;48.798;9.070;2023-10-31T03:42:31;10.50;99.90
11264;DHT22;5689;48.798;9.070;2023-10-31T03:45:01;10.50;99.90
11264;DHT22;5689;48.798;9.070;2023-10-31T03:47:29;10.50;99.90
11264;DHT22;5689;48.798;9.070;2023-10-31T03:49:59;10.50;99.90
11264;DHT22;5689;48.798;9.070;2023-10-31T03:52:27;10.50;99.90
11264;DHT22;5689;48.798;9.070;2023-10-31T03:54:55;10.50;99.90
11264;DHT22;5689;48.798;9.070;2023-10-31T03:57:24;10.50;99.90
11264;DHT22;5689;48.798;9.070;2023-10-31T03:59:52;10.40;99.90
11264;DHT22;5689;48.798;9.070;2023-10-31T04:02:21;10.30;99.90
11264;DHT22;5689;48.798;9.070;2023-10-31T04:04:50;10.30;99.90
11264;DHT22;5689;48.798;9.070;2023-10-31T04:07:19;10.30;99.90
11264;DHT22;5689;48.798;9.070;2023-10-31T04:09:47;10.30;99.90
11264;DHT22;5689;48.798;9.070;2023-10-31T04:12:17;10.30;99.90
11264;DHT22;5689;48.798;9.070;2023-10-31T04:14:45;10.40;99.90
11264;DHT22;5689;48.798;9.070;2023-10-31T04:17:13;10.40;99.90
11264;DHT22;5689;48.798;9.070;2023-10-31T04:19:41;10.40;99.90
11264;DHT22;5689;48.798;9.070;2023-10-31T04:22:09;10.30;99.90
11264;DHT22;5689;48.798;9.070;2023-10-31T04:24:39;10.20;99.90
11264;DHT22;5689;48.798;9.070;2023-10-31T04:27:07;10.20;99.90
11264;DHT22;5689;48.798;9.070;2023-10-31T04:29:36;10.20;99.90
11264;DHT22;5689;48.798;9.070;2023-10-31T04:32:04;10.20;99.90
11264;DHT22;5689;48.798;9.070;2023-10-31T04:34:32;10.20;99.90
11264;DHT22;5689;48.798;9.070;2023-10-31T04:37:00;10.20;99.90
11264;DHT22;5689;48.798;9.070;2023-10-31T04:39:28;10.20;99.90
11264;DHT22;5689;48.798;9.070;2023-10-31T04:41:58;10.10;99.90
11264;DHT22;5689;48.798;9.070;2023-10-31T04:44:26;10.00;99.90
11264;DHT22;5689;48.798;9.070;2023-10-31T04:46:54;9.90;99.90
11264;DHT22;5689;48.798;9.070;2023-10-31T04:49:22;9.90;99.90
11264;DHT22;5689;48.798;9.070;2023-10-31T04:51:50;10.00;99.90
11264;DHT22;5689;48.798;9.070;2023-10-31T04:54:18;9.90;99.90
11264;DHT22;5689;48.798;9.070;2023-10-31T04:56:47;9.90;99.90
11264;DHT22;5689;48.798;9.070;2023-10-31T04:59:17;9.80;99.90
11264;DHT22;5689;48.798;9.070;2023-10-31T05:01:48;9.90;99.90
11264;DHT22;5689;48.798;9.070;2023-10-31T05:04:17;10.00;99.90
11264;DHT22;5689;48.798;9.070;2023-10-31T05:06:45;10.00;99.90
11264;DHT22;5689;48.798;9.070;2023-10-31T05:09:14;9.90;99.90
11264;DHT22;5689;48.798;9.070;2023-10-31T05:11:42;9.90;99.90
11264;DHT22;5689;48.798;9.070;2023-10-31T05:14:10;9.90;99.90
11264;DHT22;5689;48.798;9.070;2023-10-31T05:16:41;9.80;99.90
11264;DHT22;5689;48.798;9.070;2023-10-31T05:19:09;9.80;99.90
11264;DHT22;5689;48.798;9.070;2023-10-31T05:21:37;9.90;99.90
11264;DHT22;5689;48.798;9.070;2023-10-31T05:24:06;9.90;99.90
11264;DHT22;5689;48.798;9.070;2023-10-31T05:26:35;9.90;99.90
11264;DHT22;5689;48.798;9.070;2023-10-31T05:29:03;9.80;99.90
11264;DHT22;5689;48.798;9.070;2023-10-31T05:31:32;9.80;99.90
11264;DHT22;5689;48.798;9.070;2023-10-31T05:34:01;9.80;99.90
11264;DHT22;5689;48.798;9.070;2023-10-31T05:36:30;9.70;99.90
11264;DHT22;5689;48.798;9.070;2023-10-31T05:38:58;9.60;99.90
11264;DHT22;5689;48.798;9.070;2023-10-31T05:41:26;9.70;99.90
11264;DHT22;5689;48.798;9.070;2023-10-31T05:43:54;9.70;99.90
11264;DHT22;5689;48.798;9.070;2023-10-31T05:46:22;9.60;99.90
11264;DHT22;5689;48.798;9.070;2023-10-31T05:48:51;9.60;99.90
11264;DHT22;5689;48.798;9.070;2023-10-31T05:51:20;9.60;99.90
11264;DHT22;5689;48.798;9.070;2023-10-31T05:53:48;9.50;99.90
11264;DHT22;5689;48.798;9.070;2023-10-31T05:56:17;9.50;99.90
11264;DHT22;5689;48.798;9.070;2023-10-31T05:58:45;9.50;99.90
11264;DHT22;5689;48.798;9.070;2023-10-31T06:01:13;9.50;99.90
11264;DHT22;5689;48.798;9.070;2023-10-31T06:03:42;9.50;99.90
11264;DHT22;5689;48.798;9.070;2023-10-31T06:06:10;9.60;99.90
11264;DHT22;5689;48.798;9.070;2023-10-31T06:08:41;9.70;99.90
11264;DHT22;5689;48.798;9.070;2023-10-31T06:11:09;9.80;99.90
11264;DHT22;5689;48.798;9.070;2023-10-31T06:13:39;9.70;99.90
11264;DHT22;5689;48.798;9.070;2023-10-31T06:16:07;9.70;99.90
11264;DHT22;5689;48.798;9.070;2023-10-31T06:18:37;9.70;99.90
11264;DHT22;5689;48.798;9.070;2023-10-31T06:21:05;9.70;99.90
11264;DHT22;5689;48.798;9.070;2023-10-31T06:23:36;9.70;99.90
11264;DHT22;5689;48.798;9.070;2023-10-31T06:26:05;9.80;99.90
11264;DHT22;5689;48.798;9.070;2023-10-31T06:28:34;9.90;99.90
11264;DHT22;5689;48.798;9.070;2023-10-31T06:31:05;10.00;99.90
11264;DHT22;5689;48.798;9.070;2023-10-31T06:33:33;10.00;99.90
11264;DHT22;5689;48.798;9.070;2023-10-31T06:36:02;10.00;99.90
11264;DHT22;5689;48.798;9.070;2023-10-31T06:38:30;10.00;99.90
11264;DHT22;5689;48.798;9.070;2023-10-31T06:40:58;10.00;99.90
11264;DHT22;5689;48.798;9.070;2023-10-31T06:43:27;10.00;99.90
11264;DHT22;5689;48.798;9.070;2023-10-31T06:45:57;9.90;99.90
11264;DHT22;5689;48.798;9.070;2023-10-31T06:48:27;9.90;99.90
11264;DHT22;5689;48.798;9.070;2023-10-31T06:50:55;9.90;99.90
11264;DHT22;5689;48.798;9.070;2023-10-31T06:53:23;9.80;99.90
11264;DHT22;5689;48.798;9.070;2023-10-31T06:55:51;9.70;99.90
11264;DHT22;5689;48.798;9.070;2023-10-31T06:58:19;9.70;99.90
11264;DHT22;5689;48.798;9.070;2023-10-31T07:00:48;9.70;99.90
11264;DHT22;5689;48.798;9.070;2023-10-31T07:03:16;9.70;99.90
11264;DHT22;5689;48.798;9.070;2023-10-31T07:05:44;9.70;99.90
11264;DHT22;5689;48.798;9.070;2023-10-31T07:08:12;9.70;99.90
11264;DHT22;5689;48.798;9.070;2023-10-31T07:10:40;9.80;99.90
11264;DHT22;5689;48.798;9.070;2023-10-31T07:13:08;9.80;99.90
11264;DHT22;5689;48.798;9.070;2023-10-31T07:15:36;9.80;99.90
11264;DHT22;5689;48.798;9.070;2023-10-31T07:18:07;9.90;99.90
11264;DHT22;5689;48.798;9.070;2023-10-31T07:20:35;9.90;99.90
11264;DHT22;5689;48.798;9.070;2023-10-31T07:23:03;10.00;99.90
11264;DHT22;5689;48.798;9.070;2023-10-31T07:25:31;10.00;99.90
11264;DHT22;5689;48.798;9.070;2023-10-31T07:27:59;10.10;99.90
11264;DHT22;5689;48.798;9.070;2023-10-31T07:30:27;10.20;99.90
11264;DHT22;5689;48.798;9.070;2023-10-31T07:32:55;10.30;99.90
11264;DHT22;5689;48.798;9.070;2023-10-31T07:35:24;10.30;99.90
11264;DHT22;5689;48.798;9.070;2023-10-31T07:37:52;10.30;99.90
11264;DHT22;5689;48.798;9.070;2023-10-31T07:40:20;10.40;99.90
11264;DHT22;5689;48.798;9.070;2023-10-31T07:42:49;10.40;99.90
11264;DHT22;5689;48.798;9.070;2023-10-31T07:45:17;10.60;99.90
11264;DHT22;5689;48.798;9.070;2023-10-31T07:47:45;10.60;99.90
11264;DHT22;5689;48.798;9.070;2023-10-31T07:50:13;10.80;99.90
11264;DHT22;5689;48.798;9.070;2023-10-31T07:52:42;10.90;99.90
11264;DHT22;5689;48.798;9.070;2023-10-31T07:55:12;10.90;99.90
11264;DHT22;5689;48.798;9.070;2023-10-31T07:57:41;10.90;99.90
11264;DHT22;5689;48.798;9.070;2023-10-31T08:00:10;11.20;99.90
11264;DHT22;5689;48.798;9.070;2023-10-31T08:02:38;11.20;99.90
11264;DHT22;5689;48.798;9.070;2023-10-31T08:05:07;11.10;99.90
11264;DHT22;5689;48.798;9.070;2023-10-31T08:07:36;11.30;99.90
11264;DHT22;5689;48.798;9.070;2023-10-31T08:10:06;11.40;99.90
11264;DHT22;5689;48.798;9.070;2023-10-31T08:12:35;11.30;99.90
11264;DHT22;5689;48.798;9.070;2023-10-31T08:15:03;11.30;99.90
11264;DHT22;5689;48.798;9.070;2023-10-31T08:17:31;11.20;99.90
11264;DHT22;5689;48.798;9.070;2023-10-31T08:19:59;11.40;99.90
11264;DHT22;5689;48.798;9.070;2023-10-31T08:22:26;11.80;99.90
11264;DHT22;5689;48.798;9.070;2023-10-31T08:24:54;12.00;99.90
11264;DHT22;5689;48.798;9.070;2023-10-31T08:27:24;12.30;99.90
11264;DHT22;5689;48.798;9.070;2023-10-31T08:29:52;12.40;99.90
11264;DHT22;5689;48.798;9.070;2023-10-31T08:32:20;12.60;99.90
11264;DHT22;5689;48.798;9.070;2023-10-31T08:34:49;12.80;99.90
11264;DHT22;5689;48.798;9.070;2023-10-31T08:37:17;12.90;99.90
11264;DHT22;5689;48.798;9.070;2023-10-31T08:39:45;13.10;99.90
11264;DHT22;5689;48.798;9.070;2023-10-31T08:42:13;13.10;99.90
11264;DHT22;5689;48.798;9.070;2023-10-31T08:44:42;12.90;99.90
11264;DHT22;5689;48.798;9.070;2023-10-31T08:47:10;13.10;99.90
11264;DHT22;5689;48.798;9.070;2023-10-31T08:49:39;13.10;99.90
11264;DHT22;5689;48.798;9.070;2023-10-31T08:52:06;12.90;99.90
11264;DHT22;5689;48.798;9.070;2023-10-31T08:54:34;13.20;99.90
11264;DHT22;5689;48.798;9.070;2023-10-31T08:57:03;13.00;99.90
11264;DHT22;5689;48.798;9.070;2023-10-31T08:59:31;13.00;99.90
11264;DHT22;5689;48.798;9.070;2023-10-31T09:02:01;12.70;99.90
11264;DHT22;5689;48.798;9.070;2023-10-31T09:04:29;12.90;99.90
11264;DHT22;5689;48.798;9.070;2023-10-31T09:06:57;13.10;99.90
11264;DHT22;5689;48.798;9.070;2023-10-31T09:09:25;12.90;99.90
11264;DHT22;5689;48.798;9.070;2023-10-31T09:11:53;13.10;99.90
11264;DHT22;5689;48.798;9.070;2023-10-31T09:14:21;13.30;99.90
11264;DHT22;5689;48.798;9.070;2023-10-31T09:16:49;13.00;99.90
11264;DHT22;5689;48.798;9.070;2023-10-31T09:19:19;13.00;99.90
11264;DHT22;5689;48.798;9.070;2023-10-31T09:21:47;13.20;99.90
11264;DHT22;5689;48.798;9.070;2023-10-31T09:24:15;13.30;99.90
11264;DHT22;5689;48.798;9.070;2023-10-31T09:26:43;13.60;99.90
11264;DHT22;5689;48.798;9.070;2023-10-31T09:29:11;14.00;99.90
11264;DHT22;5689;48.798;9.070;2023-10-31T09:31:42;14.40;99.90
11264;DHT22;5689;48.798;9.070;2023-10-31T09:34:10;14.60;99.90
11264;DHT22;5689;48.798;9.070;2023-10-31T09:36:39;14.60;99.90
11264;DHT22;5689;48.798;9.070;2023-10-31T09:39:08;14.60;99.90
11264;DHT22;5689;48.798;9.070;2023-10-31T09:41:36;15.10;99.90
11264;DHT22;5689;48.798;9.070;2023-10-31T09:44:05;15.80;99.90
11264;DHT22;5689;48.798;9.070;2023-10-31T09:46:35;15.80;99.90
11264;DHT22;5689;48.798;9.070;2023-10-31T09:49:03;15.70;99.90
11264;DHT22;5689;48.798;9.070;2023-10-31T09:51:32;15.50;99.90
11264;DHT22;5689;48.798;9.070;2023-10-31T09:54:04;15.10;99.90
11264;DHT22;5689;48.798;9.070;2023-10-31T09:56:34;14.90;99.90
11264;DHT22;5689;48.798;9.070;2023-10-31T09:59:02;15.10;99.90
11264;DHT22;5689;48.798;9.070;2023-10-31T10:01:30;15.00;99.90
11264;DHT22;5689;48.798;9.070;2023-10-31T10:03:58;13.90;99.90
11264;DHT22;5689;48.798;9.070;2023-10-31T10:06:26;13.90;99.90
11264;DHT22;5689;48.798;9.070;2023-10-31T10:08:55;13.80;99.90
11264;DHT22;5689;48.798;9.070;2023-10-31T10:11:25;13.80;99.90
11264;DHT22;5689;48.798;9.070;2023-10-31T10:13:53;13.50;99.90
11264;DHT22;5689;48.798;9.070;2023-10-31T10:16:30;13.30;99.90
11264;DHT22;5689;48.798;9.070;2023-10-31T10:19:14;13.30;99.90
11264;DHT22;5689;48.798;9.070;2023-10-31T10:21:47;13.40;99.90
11264;DHT22;5689;48.798;9.070;2023-10-31T10:24:15;13.30;99.90
11264;DHT22;5689;48.798;9.070;2023-10-31T10:26:45;13.20;99.90
11264;DHT22;5689;48.798;9.070;2023-10-31T10:29:13;13.00;99.90
11264;DHT22;5689;48.798;9.070;2023-10-31T10:31:42;13.00;99.90
11264;DHT22;5689;48.798;9.070;2023-10-31T10:34:13;13.00;99.90
11264;DHT22;5689;48.798;9.070;2023-10-31T10:36:46;12.70;99.90
11264;DHT22;5689;48.798;9.070;2023-10-31T10:39:16;12.60;99.90
11264;DHT22;5689;48.798;9.070;2023-10-31T10:41:52;12.60;99.90
11264;DHT22;5689;48.798;9.070;2023-10-31T10:44:29;12.50;99.90
11264;DHT22;5689;48.798;9.070;2023-10-31T10:47:02;12.50;99.90
11264;DHT22;5689;48.798;9.070;2023-10-31T10:49:33;12.60;99.90
11264;DHT22;5689;48.798;9.070;2023-10-31T10:52:17;12.80;99.90
11264;DHT22;5689;48.798;9.070;2023-10-31T10:54:52;13.20;99.90
11264;DHT22;5689;48.798;9.070;2023-10-31T10:57:31;13.40;99.90
11264;DHT22;5689;48.798;9.070;2023-10-31T11:00:03;13.50;99.90
11264;DHT22;5689;48.798;9.070;2023-10-31T11:02:32;13.60;99.90
11264;DHT22;5689;48.798;9.070;2023-10-31T11:05:02;13.70;99.90
11264;DHT22;5689;48.798;9.070;2023-10-31T11:07:34;13.70;99.90
11264;DHT22;5689;48.798;9.070;2023-10-31T11:10:03;13.90;99.90
11264;DHT22;5689;48.798;9.070;2023-10-31T11:12:33;14.00;99.90
11264;DHT22;5689;48.798;9.070;2023-10-31T11:15:02;13.80;99.90
11264;DHT22;5689;48.798;9.070;2023-10-31T11:17:33;13.70;99.90
11264;DHT22;5689;48.798;9.070;2023-10-31T11:20:03;13.70;99.90
11264;DHT22;5689;48.798;9.070;2023-10-31T11:22:38;13.80;99.90
11264;DHT22;5689;48.798;9.070;2023-10-31T11:25:08;13.80;99.90
11264;DHT22;5689;48.798;9.070;2023-10-31T11:27:38;13.80;99.90
11264;DHT22;5689;48.798;9.070;2023-10-31T11:30:20;13.60;99.90
11264;DHT22;5689;48.798;9.070;2023-10-31T11:32:48;14.00;99.90
11264;DHT22;5689;48.798;9.070;2023-10-31T11:35:17;13.90;99.90
11264;DHT22;5689;48.798;9.070;2023-10-31T11:37:48;14.10;99.90
11264;DHT22;5689;48.798;9.070;2023-10-31T11:40:17;13.90;99.90
11264;DHT22;5689;48.798;9.070;2023-10-31T11:42:51;13.80;99.90
11264;DHT22;5689;48.798;9.070;2023-10-31T11:45:28;13.90;99.90
11264;DHT22;5689;48.798;9.070;2023-10-31T11:47:56;13.70;99.90
11264;DHT22;5689;48.798;9.070;2023-10-31T11:50:25;13.60;99.90
11264;DHT22;5689;48.798;9.070;2023-10-31T11:53:00;13.60;99.90
11264;DHT22;5689;48.798;9.070;2023-10-31T11:55:29;13.90;99.90
11264;DHT22;5689;48.798;9.070;2023-10-31T11:57:59;13.80;99.90
11264;DHT22;5689;48.798;9.070;2023-10-31T12:00:27;13.60;99.90
11264;DHT22;5689;48.798;9.070;2023-10-31T12:02:59;13.70;99.90
11264;DHT22;5689;48.798;9.070;2023-10-31T12:05:27;13.80;99.90
11264;DHT22;5689;48.798;9.070;2023-10-31T12:07:56;13.70;99.90
11264;DHT22;5689;48.798;9.070;2023-10-31T12:10:25;13.30;99.90
11264;DHT22;5689;48.798;9.070;2023-10-31T12:12:53;13.30;99.90
11264;DHT22;5689;48.798;9.070;2023-10-31T12:15:23;13.40;99.90
11264;DHT22;5689;48.798;9.070;2023-10-31T12:17:51;13.70;99.90
11264;DHT22;5689;48.798;9.070;2023-10-31T12:20:19;13.80;99.90
11264;DHT22;5689;48.798;9.070;2023-10-31T12:22:47;13.80;99.90
11264;DHT22;5689;48.798;9.070;2023-10-31T12:25:15;13.90;99.90
11264;DHT22;5689;48.798;9.070;2023-10-31T12:27:45;14.40;99.90
11264;DHT22;5689;48.798;9.070;2023-10-31T12:30:17;14.40;99.90
11264;DHT22;5689;48.798;9.070;2023-10-31T12:32:53;14.30;99.90
11264;DHT22;5689;48.798;9.070;2023-10-31T12:35:23;14.10;99.90
11264;DHT22;5689;48.798;9.070;2023-10-31T12:37:51;13.70;99.90
11264;DHT22;5689;48.798;9.070;2023-10-31T12:40:21;13.80;99.90
11264;DHT22;5689;48.798;9.070;2023-10-31T12:42:50;14.00;99.90
11264;DHT22;5689;48.798;9.070;2023-10-31T12:45:18;14.00;99.90
11264;DHT22;5689;48.798;9.070;2023-10-31T12:48:01;13.80;99.90
11264;DHT22;5689;48.798;9.070;2023-10-31T12:50:31;13.70;99.90
11264;DHT22;5689;48.798;9.070;2023-10-31T12:52:59;13.60;99.90
11264;DHT22;5689;48.798;9.070;2023-10-31T12:55:31;13.60;99.90
11264;DHT22;5689;48.798;9.070;2023-10-31T12:58:05;13.60;99.90
11264;DHT22;5689;48.798;9.070;2023-10-31T13:00:34;13.60;99.90
11264;DHT22;5689;48.798;9.070;2023-10-31T13:03:05;14.30;99.90
11264;DHT22;5689;48.798;9.070;2023-10-31T13:05:35;14.30;99.90
11264;DHT22;5689;48.798;9.070;2023-10-31T13:08:13;14.50;99.90
11264;DHT22;5689;48.798;9.070;2023-10-31T13:10:41;14.80;99.90
11264;DHT22;5689;48.798;9.070;2023-10-31T13:13:10;14.60;99.90
11264;DHT22;5689;48.798;9.070;2023-10-31T13:15:39;14.50;99.90
11264;DHT22;5689;48.798;9.070;2023-10-31T13:18:08;14.00;99.90
11264;DHT22;5689;48.798;9.070;2023-10-31T13:20:38;14.00;99.90
11264;DHT22;5689;48.798;9.070;2023-10-31T13:23:06;14.00;99.90
11264;DHT22;5689;48.798;9.070;2023-10-31T13:25:34;14.10;99.90
11264;DHT22;5689;48.798;9.070;2023-10-31T13:28:02;14.20;99.90
11264;DHT22;5689;48.798;9.070;2023-10-31T13:30:33;14.30;99.90
11264;DHT22;5689;48.798;9.070;2023-10-31T13:33:01;14.50;99.90
11264;DHT22;5689;48.798;9.070;2023-10-31T13:35:31;14.40;99.90
11264;DHT22;5689;48.798;9.070;2023-10-31T13:38:00;14.30;99.90
11264;DHT22;5689;48.798;9.070;2023-10-31T13:40:28;14.30;99.90
11264;DHT22;5689;48.798;9.070;2023-10-31T13:42:56;14.20;99.90
11264;DHT22;5689;48.798;9.070;2023-10-31T13:45:24;14.00;99.90
11264;DHT22;5689;48.798;9.070;2023-10-31T13:47:52;14.00;99.90
11264;DHT22;5689;48.798;9.070;2023-10-31T13:50:20;14.00;99.90
11264;DHT22;5689;48.798;9.070;2023-10-31T13:52:50;14.10;99.90
11264;DHT22;5689;48.798;9.070;2023-10-31T13:55:19;14.20;99.90
11264;DHT22;5689;48.798;9.070;2023-10-31T13:57:47;14.30;99.90
11264;DHT22;5689;48.798;9.070;2023-10-31T14:00:15;14.30;99.90
11264;DHT22;5689;48.798;9.070;2023-10-31T14:02:43;14.30;99.90
11264;DHT22;5689;48.798;9.070;2023-10-31T14:05:11;14.30;99.90
11264;DHT22;5689;48.798;9.070;2023-10-31T14:07:40;13.80;99.90
11264;DHT22;5689;48.798;9.070;2023-10-31T14:10:09;13.90;99.90
11264;DHT22;5689;48.798;9.070;2023-10-31T14:12:37;14.00;99.90
11264;DHT22;5689;48.798;9.070;2023-10-31T14:15:06;14.00;99.90
11264;DHT22;5689;48.798;9.070;2023-10-31T14:17:34;14.00;99.90
11264;DHT22;5689;48.798;9.070;2023-10-31T14:20:02;13.80;99.90
11264;DHT22;5689;48.798;9.070;2023-10-31T14:22:31;14.00;99.90
11264;DHT22;5689;48.798;9.070;2023-10-31T14:24:59;13.80;99.90
11264;DHT22;5689;48.798;9.070;2023-10-31T14:27:30;13.80;99.90
11264;DHT22;5689;48.798;9.070;2023-10-31T14:29:58;13.90;99.90
11264;DHT22;5689;48.798;9.070;2023-10-31T14:32:26;13.90;99.90
11264;DHT22;5689;48.798;9.070;2023-10-31T14:34:54;13.80;99.90
11264;DHT22;5689;48.798;9.070;2023-10-31T14:37:22;13.80;99.90
11264;DHT22;5689;48.798;9.070;2023-10-31T14:39:50;13.40;99.90
11264;DHT22;5689;48.798;9.070;2023-10-31T14:42:18;13.10;99.90
11264;DHT22;5689;48.798;9.070;2023-10-31T14:44:47;12.90;99.90
11264;DHT22;5689;48.798;9.070;2023-10-31T14:47:15;12.70;99.90
11264;DHT22;5689;48.798;9.070;2023-10-31T14:49:43;12.60;99.90
11264;DHT22;5689;48.798;9.070;2023-10-31T14:52:11;12.50;99.90
11264;DHT22;5689;48.798;9.070;2023-10-31T14:54:40;12.40;99.90
11264;DHT22;5689;48.798;9.070;2023-10-31T14:57:09;12.30;99.90
11264;DHT22;5689;48.798;9.070;2023-10-31T14:59:37;12.30;99.90
11264;DHT22;5689;48.798;9.070;2023-10-31T15:02:06;12.20;99.90
11264;DHT22;5689;48.798;9.070;2023-10-31T15:04:35;12.20;99.90
11264;DHT22;5689;48.798;9.070;2023-10-31T15:07:04;12.20;99.90
11264;DHT22;5689;48.798;9.070;2023-10-31T15:09:32;12.30;99.90
11264;DHT22;5689;48.798;9.070;2023-10-31T15:12:00;12.40;99.90
11264;DHT22;5689;48.798;9.070;2023-10-31T15:14:28;12.30;99.90
11264;DHT22;5689;48.798;9.070;2023-10-31T15:16:56;12.40;99.90
11264;DHT22;5689;48.798;9.070;2023-10-31T15:19:25;12.30;99.90
11264;DHT22;5689;48.798;9.070;2023-10-31T15:21:53;12.40;99.90
11264;DHT22;5689;48.798;9.070;2023-10-31T15:24:21;12.40;99.90
11264;DHT22;5689;48.798;9.070;2023-10-31T15:26:49;12.40;99.90
11264;DHT22;5689;48.798;9.070;2023-10-31T15:29:17;12.30;99.90
11264;DHT22;5689;48.798;9.070;2023-10-31T15:31:45;12.40;99.90
11264;DHT22;5689;48.798;9.070;2023-10-31T15:34:14;12.20;99.90
11264;DHT22;5689;48.798;9.070;2023-10-31T15:36:43;12.10;99.90
11264;DHT22;5689;48.798;9.070;2023-10-31T15:39:11;12.00;99.90
11264;DHT22;5689;48.798;9.070;2023-10-31T15:41:40;12.00;99.90
11264;DHT22;5689;48.798;9.070;2023-10-31T15:44:08;11.90;99.90
11264;DHT22;5689;48.798;9.070;2023-10-31T15:46:36;12.10;99.90
11264;DHT22;5689;48.798;9.070;2023-10-31T15:49:05;12.20;99.90
11264;DHT22;5689;48.798;9.070;2023-10-31T15:51:32;12.20;99.90
11264;DHT22;5689;48.798;9.070;2023-10-31T15:54:02;12.30;99.90
11264;DHT22;5689;48.798;9.070;2023-10-31T15:56:31;12.30;99.90
11264;DHT22;5689;48.798;9.070;2023-10-31T15:58:59;12.30;99.90